createdAt,value
2018-09-16T00:00:31.225Z,4.97
2018-09-16T00:03:01.427Z,5.73
2018-09-16T00:05:29.872Z,4.93
2018-09-16T00:07:58.347Z,5.97
2018-09-16T00:10:26.853Z,6.73
2018-09-16T00:12:55.755Z,4.10
2018-09-16T00:15:24.621Z,5.80
2018-09-16T00:17:53.424Z,4.87
2018-09-16T00:20:21.871Z,9.37
2018-09-16T00:22:50.659Z,4.80
2018-09-16T00:25:19.460Z,6.77
2018-09-16T00:27:48.868Z,4.57
2018-09-16T00:30:17.306Z,4.90
2018-09-16T00:32:47.571Z,5.50
2018-09-16T00:35:16.930Z,7.43
2018-09-16T00:37:45.971Z,7.47
2018-09-16T00:40:16.047Z,3.60
2018-09-16T00:42:45.459Z,6.03
2018-09-16T00:45:14.340Z,5.70
2018-09-16T00:47:42.829Z,4.60
2018-09-16T00:50:11.330Z,6.67
2018-09-16T00:52:40.143Z,6.33
2018-09-16T00:55:12.058Z,5.07
2018-09-16T00:57:40.739Z,5.93
2018-09-16T01:00:09.760Z,5.93
2018-09-16T01:02:39.151Z,5.40
2018-09-16T01:05:08.383Z,7.87
2018-09-16T01:07:36.815Z,5.37
2018-09-16T01:10:05.341Z,3.27
2018-09-16T01:12:33.807Z,5.83
2018-09-16T01:15:02.663Z,4.27
2018-09-16T01:17:31.357Z,6.17
2018-09-16T01:20:00.515Z,5.13
2018-09-16T01:22:30.492Z,5.83
2018-09-16T01:24:58.987Z,4.67
2018-09-16T01:27:27.438Z,5.80
2018-09-16T01:29:55.916Z,5.53
2018-09-16T01:32:24.980Z,4.93
2018-09-16T01:34:54.455Z,7.27
2018-09-16T01:37:28.396Z,6.20
2018-09-16T01:39:57.088Z,5.77
2018-09-16T01:42:25.578Z,5.13
2018-09-16T01:44:54.845Z,5.40
2018-09-16T01:47:23.931Z,7.20
2018-09-16T01:49:53.684Z,5.87
2018-09-16T01:52:23.160Z,4.57
2018-09-16T01:54:52.013Z,4.13
2018-09-16T01:57:22.015Z,6.73
2018-09-16T01:59:50.476Z,6.23
2018-09-16T02:02:18.929Z,5.37
2018-09-16T02:04:52.328Z,6.60
2018-09-16T02:07:21.174Z,7.33
2018-09-16T02:09:49.610Z,4.60
2018-09-16T02:12:18.052Z,7.93
2018-09-16T02:14:46.744Z,3.90
2018-09-16T02:17:15.619Z,4.57
2018-09-16T02:19:45.500Z,6.03
2018-09-16T02:22:14.416Z,4.27
2018-09-16T02:24:42.877Z,4.33
2018-09-16T02:27:11.323Z,6.83
2018-09-16T02:29:40.227Z,4.53
2018-09-16T02:32:10.327Z,6.40
2018-09-16T02:34:38.791Z,6.10
2018-09-16T02:37:07.301Z,4.50
2018-09-16T02:39:36.587Z,7.03
2018-09-16T02:42:05.273Z,5.83
2018-09-16T02:44:34.700Z,5.03
2018-09-16T02:47:03.568Z,4.93
2018-09-16T02:49:33.145Z,4.13
2018-09-16T02:52:01.650Z,4.73
2018-09-16T02:54:30.076Z,6.30
2018-09-16T02:56:58.528Z,6.10
2018-09-16T02:59:26.963Z,4.83
2018-09-16T03:01:55.843Z,4.43
2018-09-16T03:04:24.588Z,3.93
2018-09-16T03:06:53.421Z,6.87
2018-09-16T03:09:21.867Z,6.47
2018-09-16T03:11:50.446Z,5.50
2018-09-16T03:14:19.683Z,5.50
2018-09-16T03:16:50.400Z,5.23
2018-09-16T03:19:19.223Z,5.83
2018-09-16T03:21:47.951Z,6.00
2018-09-16T03:24:16.750Z,6.17
2018-09-16T03:26:46.215Z,4.63
2018-09-16T03:29:14.653Z,5.90
2018-09-16T03:31:43.111Z,4.80
2018-09-16T03:34:12.563Z,5.83
2018-09-16T03:36:41.078Z,4.77
2018-09-16T03:39:10.648Z,8.03
2018-09-16T03:41:39.888Z,5.50
2018-09-16T03:44:08.632Z,4.73
2018-09-16T03:46:38.410Z,6.23
2018-09-16T03:49:07.135Z,7.00
2018-09-16T03:51:35.895Z,5.77
2018-09-16T03:54:04.973Z,6.57
2018-09-16T03:56:37.941Z,7.67
2018-09-16T03:59:07.191Z,5.70
2018-09-16T04:01:37.014Z,4.03
2018-09-16T04:04:05.498Z,4.43
2018-09-16T04:06:34.392Z,5.07
2018-09-16T04:09:02.914Z,7.23
2018-09-16T04:11:31.456Z,4.83
2018-09-16T04:14:00.446Z,4.83
2018-09-16T04:16:30.027Z,4.43
2018-09-16T04:19:00.147Z,4.23
2018-09-16T04:21:28.806Z,5.63
2018-09-16T04:23:58.670Z,4.10
2018-09-16T04:26:27.358Z,4.67
2018-09-16T04:28:58.146Z,7.77
2018-09-16T04:31:27.594Z,6.33
2018-09-16T04:33:56.259Z,6.10
2018-09-16T04:36:24.683Z,4.73
2018-09-16T04:38:54.420Z,6.93
2018-09-16T04:41:23.883Z,4.70
2018-09-16T04:43:52.585Z,5.50
2018-09-16T04:46:21.467Z,7.07
2018-09-16T04:48:50.765Z,7.07
2018-09-16T04:51:20.149Z,9.03
2018-09-16T04:53:49.632Z,7.03
2018-09-16T04:56:19.805Z,5.77
2018-09-16T04:58:49.487Z,5.07
2018-09-16T05:01:17.932Z,7.13
2018-09-16T05:03:46.478Z,7.47
2018-09-16T05:06:15.252Z,5.43
2018-09-16T05:08:44.657Z,8.17
2018-09-16T05:11:13.856Z,5.13
2018-09-16T05:13:42.753Z,6.13
2018-09-16T05:16:12.450Z,9.13
2018-09-16T05:18:42.358Z,5.57
2018-09-16T05:21:11.045Z,8.80
2018-09-16T05:23:40.153Z,5.40
2018-09-16T05:26:09.016Z,7.47
2018-09-16T05:28:38.275Z,5.97
2018-09-16T05:31:06.748Z,7.07
2018-09-16T05:33:35.991Z,7.97
2018-09-16T05:36:04.531Z,7.20
2018-09-16T05:38:32.979Z,6.17
2018-09-16T05:41:02.008Z,7.97
2018-09-16T05:43:31.029Z,7.13
2018-09-16T05:45:59.671Z,4.83
2018-09-16T05:48:28.113Z,10.03
2018-09-16T05:50:56.907Z,4.33
2018-09-16T05:53:26.484Z,5.43
2018-09-16T05:55:55.025Z,6.77
2018-09-16T05:58:23.465Z,8.10
2018-09-16T06:00:53.036Z,5.47
2018-09-16T06:03:22.219Z,6.43
2018-09-16T06:05:51.186Z,7.17
2018-09-16T06:08:20.460Z,7.40
2018-09-16T06:10:49.666Z,8.70
2018-09-16T06:13:18.335Z,7.10
2018-09-16T06:15:47.061Z,6.20
2018-09-16T06:18:16.375Z,6.20
2018-09-16T06:20:45.497Z,6.67
2018-09-16T06:23:15.074Z,6.20
2018-09-16T06:25:43.585Z,7.63
2018-09-16T06:28:12.140Z,6.47
2018-09-16T06:30:41.497Z,6.00
2018-09-16T06:33:11.084Z,6.73
2018-09-16T06:35:40.035Z,7.70
2018-09-16T06:38:09.723Z,7.80
2018-09-16T06:40:38.206Z,5.73
2018-09-16T06:43:07.100Z,6.13
2018-09-16T06:45:36.448Z,6.63
2018-09-16T06:48:05.369Z,7.00
2018-09-16T06:50:35.357Z,5.97
2018-09-16T06:53:04.768Z,6.97
2018-09-16T06:55:33.279Z,7.27
2018-09-16T06:58:03.037Z,7.97
2018-09-16T07:00:32.597Z,8.07
2018-09-16T07:03:01.545Z,6.47
2018-09-16T07:05:31.825Z,7.00
2018-09-16T07:08:02.414Z,5.77
2018-09-16T07:10:32.092Z,5.80
2018-09-16T07:13:01.243Z,6.40
2018-09-16T07:15:32.305Z,7.63
2018-09-16T07:18:01.126Z,5.73
2018-09-16T07:20:30.889Z,7.47
2018-09-16T07:23:01.792Z,6.20
2018-09-16T07:25:31.187Z,5.40
2018-09-16T07:27:59.655Z,7.63
2018-09-16T07:30:28.540Z,7.87
2018-09-16T07:32:57.029Z,6.20
2018-09-16T07:35:25.501Z,7.87
2018-09-16T07:37:53.982Z,6.70
2018-09-16T07:40:22.590Z,8.97
2018-09-16T07:42:51.137Z,9.33
2018-09-16T07:45:19.598Z,6.57
2018-09-16T07:47:49.554Z,5.17
2018-09-16T07:50:18.400Z,10.40
2018-09-16T07:52:47.906Z,6.80
2018-09-16T07:55:16.893Z,6.53
2018-09-16T07:57:45.356Z,7.13
2018-09-16T08:00:17.216Z,11.13
2018-09-16T08:02:46.628Z,6.43
2018-09-16T08:05:19.068Z,9.30
2018-09-16T08:07:48.732Z,6.43
2018-09-16T08:10:17.461Z,4.33
2018-09-16T08:12:46.756Z,7.17
2018-09-16T08:15:15.333Z,7.87
2018-09-16T08:17:43.774Z,6.40
2018-09-16T08:20:12.253Z,7.00
2018-09-16T08:22:41.064Z,4.37
2018-09-16T08:25:10.037Z,6.40
2018-09-16T08:27:38.490Z,5.03
2018-09-16T08:30:08.897Z,7.77
2018-09-16T08:32:37.393Z,4.37
2018-09-16T08:35:05.942Z,4.03
2018-09-16T08:37:36.004Z,4.53
2018-09-16T08:40:06.110Z,3.00
2018-09-16T08:42:34.781Z,3.30
2018-09-16T08:45:04.175Z,3.33
2018-09-16T08:47:33.393Z,3.60
2018-09-16T08:50:02.420Z,2.40
2018-09-16T08:52:30.953Z,2.50
2018-09-16T08:55:00.427Z,3.27
2018-09-16T08:57:29.283Z,3.23
2018-09-16T08:59:57.796Z,4.53
2018-09-16T09:02:27.290Z,3.90
2018-09-16T09:04:56.065Z,6.03
2018-09-16T09:07:26.533Z,3.00
2018-09-16T09:09:56.266Z,3.27
2018-09-16T09:12:25.835Z,3.23
2018-09-16T09:14:55.153Z,2.03
2018-09-16T09:17:24.539Z,3.53
2018-09-16T09:19:53.444Z,5.10
2018-09-16T09:22:23.727Z,3.27
2018-09-16T09:24:53.095Z,3.53
2018-09-16T09:27:21.821Z,2.37
2018-09-16T09:29:51.794Z,4.30
2018-09-16T09:32:20.638Z,5.00
2018-09-16T09:34:50.100Z,3.67
2018-09-16T09:37:19.353Z,4.53
2018-09-16T09:39:48.554Z,2.77
2018-09-16T09:42:18.086Z,2.97
2018-09-16T09:44:46.762Z,3.23
2018-09-16T09:47:15.872Z,3.87
2018-09-16T09:49:45.462Z,3.83
2018-09-16T09:52:14.773Z,4.17
2018-09-16T09:54:43.538Z,3.57
2018-09-16T09:57:13.466Z,6.87
2018-09-16T09:59:45.495Z,3.17
2018-09-16T10:02:14.208Z,4.00
2018-09-16T10:04:43.058Z,2.37
2018-09-16T10:07:12.397Z,2.70
2018-09-16T10:09:42.146Z,2.20
2018-09-16T10:12:11.507Z,3.23
2018-09-16T10:14:41.610Z,4.70
2018-09-16T10:17:10.604Z,2.43
2018-09-16T10:19:40.230Z,2.20
2018-09-16T10:22:08.695Z,2.67
2018-09-16T10:24:38.184Z,1.80
2018-09-16T10:27:07.781Z,3.03
2018-09-16T10:29:37.448Z,4.03
2018-09-16T10:32:06.169Z,2.80
2018-09-16T10:34:35.492Z,3.07
2018-09-16T10:37:04.833Z,3.23
2018-09-16T10:39:33.517Z,2.93
2018-09-16T10:42:02.516Z,2.67
2018-09-16T10:44:32.750Z,5.00
2018-09-16T10:47:02.245Z,3.13
2018-09-16T10:49:30.736Z,2.40
2018-09-16T10:51:59.259Z,1.93
2018-09-16T10:54:29.914Z,3.23
2018-09-16T10:56:59.548Z,2.00
2018-09-16T10:59:28.784Z,2.67
2018-09-16T11:01:58.938Z,3.30
2018-09-16T11:04:28.286Z,4.63
2018-09-16T11:06:57.204Z,3.13
2018-09-16T11:09:26.768Z,3.60
2018-09-16T11:11:55.605Z,3.33
2018-09-16T11:14:25.200Z,1.60
2018-09-16T11:16:54.230Z,2.03
2018-09-16T11:19:22.766Z,1.63
2018-09-16T11:21:52.264Z,3.30
2018-09-16T11:24:20.800Z,2.43
2018-09-16T11:26:49.776Z,2.63
2018-09-16T11:29:19.423Z,2.53
2018-09-16T11:31:49.326Z,1.77
2018-09-16T11:34:17.812Z,3.67
2018-09-16T11:36:46.278Z,3.20
2018-09-16T11:39:14.971Z,3.90
2018-09-16T11:41:43.691Z,2.00
2018-09-16T11:44:12.497Z,5.93
2018-09-16T11:46:41.301Z,3.27
2018-09-16T11:49:10.681Z,3.17
2018-09-16T11:51:40.027Z,4.17
2018-09-16T11:54:10.072Z,2.90
2018-09-16T11:56:38.873Z,2.20
2018-09-16T11:59:08.735Z,2.47
2018-09-16T12:01:37.637Z,2.17
2018-09-16T12:04:06.379Z,1.70
2018-09-16T12:06:35.787Z,3.30
2018-09-16T12:09:05.141Z,1.23
2018-09-16T12:11:34.054Z,2.53
2018-09-16T12:14:02.667Z,3.13
2018-09-16T12:16:31.127Z,2.63
2018-09-16T12:19:00.595Z,1.80
2018-09-16T12:21:30.042Z,2.03
2018-09-16T12:23:59.811Z,1.27
2018-09-16T12:26:28.322Z,2.87
2018-09-16T12:28:56.795Z,2.57
2018-09-16T12:31:25.241Z,2.00
2018-09-16T12:33:53.717Z,2.03
2018-09-16T12:36:23.144Z,2.37
2018-09-16T12:38:52.620Z,7.97
2018-09-16T12:41:21.993Z,3.00
2018-09-16T12:43:51.865Z,2.03
2018-09-16T12:46:20.563Z,2.60
2018-09-16T12:48:49.045Z,2.80
2018-09-16T12:51:18.154Z,1.57
2018-09-16T12:53:47.175Z,3.07
2018-09-16T12:56:15.980Z,2.47
2018-09-16T12:58:44.836Z,3.83
2018-09-16T13:01:14.060Z,2.13
2018-09-16T13:03:43.446Z,1.17
2018-09-16T13:06:13.146Z,2.17
2018-09-16T13:08:42.142Z,3.97
2018-09-16T13:11:10.744Z,1.33
2018-09-16T13:13:44.126Z,2.47
2018-09-16T13:16:14.571Z,2.87
2018-09-16T13:18:43.475Z,3.27
2018-09-16T13:21:12.196Z,2.27
2018-09-16T13:23:41.571Z,1.23
2018-09-16T13:26:10.631Z,1.77
2018-09-16T13:28:39.346Z,1.70
2018-09-16T13:31:08.295Z,3.33
2018-09-16T13:33:38.384Z,2.23
2018-09-16T13:36:17.037Z,4.77
2018-09-16T13:38:46.701Z,2.93
2018-09-16T13:41:15.310Z,2.43
2018-09-16T13:43:44.249Z,1.80
2018-09-16T13:46:14.468Z,2.00
2018-09-16T13:48:43.372Z,2.63
2018-09-16T13:51:12.584Z,2.10
2018-09-16T13:53:41.109Z,2.30
2018-09-16T13:56:09.896Z,2.40
2018-09-16T13:58:38.705Z,1.70
2018-09-16T14:01:07.443Z,1.30
2018-09-16T14:03:39.773Z,1.60
2018-09-16T14:06:09.079Z,1.77
2018-09-16T14:08:38.255Z,3.13
2018-09-16T14:11:08.549Z,1.70
2018-09-16T14:13:37.041Z,1.37
2018-09-16T14:16:08.891Z,2.07
2018-09-16T14:18:37.716Z,2.70
2018-09-16T14:21:06.684Z,2.63
2018-09-16T14:23:37.039Z,3.03
2018-09-16T14:26:05.914Z,2.73
2018-09-16T14:28:34.609Z,2.23
2018-09-16T14:31:04.485Z,2.40
2018-09-16T14:33:33.259Z,2.03
2018-09-16T14:36:02.644Z,2.03
2018-09-16T14:38:31.612Z,1.80
2018-09-16T14:41:01.402Z,2.23
2018-09-16T14:43:29.902Z,2.90
2018-09-16T14:46:00.021Z,2.53
2018-09-16T14:48:29.245Z,3.53
2018-09-16T14:50:57.708Z,1.53
2018-09-16T14:53:28.216Z,3.43
2018-09-16T14:55:58.166Z,1.70
2018-09-16T14:58:30.335Z,1.47
2018-09-16T15:00:59.058Z,1.80
2018-09-16T15:03:27.871Z,2.17
2018-09-16T15:05:57.440Z,4.10
2018-09-16T15:08:25.911Z,1.83
2018-09-16T15:10:54.358Z,1.60
2018-09-16T15:13:23.740Z,3.60
2018-09-16T15:15:52.166Z,2.47
2018-09-16T15:18:20.800Z,1.60
2018-09-16T15:20:49.256Z,1.73
2018-09-16T15:23:19.493Z,2.17
2018-09-16T15:25:48.680Z,1.37
2018-09-16T15:28:17.417Z,2.80
2018-09-16T15:30:47.524Z,1.67
2018-09-16T15:33:16.796Z,3.73
2018-09-16T15:35:45.380Z,2.10
2018-09-16T15:38:13.864Z,2.33
2018-09-16T15:40:43.856Z,3.27
2018-09-16T15:43:12.358Z,3.13
2018-09-16T15:45:41.540Z,2.97
2018-09-16T15:48:11.002Z,3.00
2018-09-16T15:50:39.464Z,1.97
2018-09-16T15:53:09.519Z,1.20
2018-09-16T15:55:38.339Z,2.67
2018-09-16T15:58:07.721Z,2.73
2018-09-16T16:00:37.413Z,2.17
2018-09-16T16:03:06.257Z,1.87
2018-09-16T16:05:34.826Z,2.07
2018-09-16T16:08:03.368Z,1.90
2018-09-16T16:10:32.375Z,1.60
2018-09-16T16:13:00.797Z,2.40
2018-09-16T16:15:29.884Z,1.43
2018-09-16T16:17:58.970Z,3.03
2018-09-16T16:20:28.926Z,2.27
2018-09-16T16:22:58.621Z,5.23
2018-09-16T16:25:27.836Z,1.40
2018-09-16T16:27:58.368Z,3.20
2018-09-16T16:30:28.789Z,3.23
2018-09-16T16:33:00.246Z,6.30
2018-09-16T16:35:29.488Z,3.47
2018-09-16T16:37:59.735Z,2.20
2018-09-16T16:40:28.234Z,3.47
2018-09-16T16:42:56.682Z,2.63
2018-09-16T16:45:25.178Z,2.47
2018-09-16T16:47:54.489Z,2.37
2018-09-16T16:50:28.076Z,2.23
2018-09-16T16:52:57.218Z,2.20
2018-09-16T16:55:26.719Z,2.50
2018-09-16T16:57:56.747Z,4.87
2018-09-16T17:00:25.370Z,3.00
2018-09-16T17:02:54.756Z,3.70
2018-09-16T17:05:23.268Z,3.03
2018-09-16T17:07:51.787Z,2.40
2018-09-16T17:10:21.663Z,2.97
2018-09-16T17:12:50.108Z,3.93
2018-09-16T17:15:19.044Z,2.37
2018-09-16T17:17:47.772Z,2.00
2018-09-16T17:20:16.533Z,1.73
2018-09-16T17:22:45.711Z,3.73
2018-09-16T17:25:15.299Z,4.87
2018-09-16T17:27:43.980Z,7.50
2018-09-16T17:30:12.471Z,6.23
2018-09-16T17:32:43.600Z,5.37
2018-09-16T17:35:12.969Z,2.77
2018-09-16T17:37:41.679Z,3.57
2018-09-16T17:40:10.635Z,4.10
2018-09-16T17:42:40.800Z,6.60
2018-09-16T17:45:10.722Z,3.43
2018-09-16T17:47:39.473Z,5.27
2018-09-16T17:50:09.428Z,4.07
2018-09-16T17:52:37.882Z,7.07
2018-09-16T17:55:06.772Z,5.53
2018-09-16T17:57:36.211Z,3.10
2018-09-16T18:00:05.099Z,2.27
2018-09-16T18:02:38.218Z,3.80
2018-09-16T18:05:07.652Z,3.90
2018-09-16T18:07:36.109Z,3.80
2018-09-16T18:10:05.056Z,3.30
2018-09-16T18:12:33.500Z,2.90
2018-09-16T18:15:03.704Z,2.90
2018-09-16T18:17:33.108Z,2.70
2018-09-16T18:20:02.125Z,2.30
2018-09-16T18:22:30.827Z,4.00
2018-09-16T18:25:01.103Z,3.47
2018-09-16T18:27:30.268Z,3.87
2018-09-16T18:29:59.172Z,3.50
2018-09-16T18:32:28.629Z,3.43
2018-09-16T18:34:58.132Z,2.67
2018-09-16T18:37:28.351Z,3.63
2018-09-16T18:39:57.775Z,6.53
2018-09-16T18:42:26.307Z,5.13
2018-09-16T18:44:55.716Z,4.73
2018-09-16T18:47:24.631Z,2.07
2018-09-16T18:49:53.405Z,2.67
2018-09-16T18:52:22.953Z,3.67
2018-09-16T18:54:52.115Z,2.77
2018-09-16T18:57:21.611Z,2.83
2018-09-16T18:59:51.189Z,4.27
2018-09-16T19:02:21.052Z,3.67
2018-09-16T19:04:49.496Z,5.53
2018-09-16T19:07:19.406Z,2.97
2018-09-16T19:09:48.606Z,5.00
2018-09-16T19:12:19.146Z,4.03
2018-09-16T19:14:48.080Z,4.83
2018-09-16T19:17:16.797Z,4.90
2018-09-16T19:19:45.526Z,2.83
2018-09-16T19:22:14.373Z,5.90
2018-09-16T19:24:43.147Z,4.30
2018-09-16T19:27:13.200Z,4.67
2018-09-16T19:29:42.223Z,8.30
2018-09-16T19:32:11.686Z,4.67
2018-09-16T19:34:41.037Z,5.37
2018-09-16T19:37:11.070Z,6.07
2018-09-16T19:39:39.965Z,3.03
2018-09-16T19:42:09.498Z,3.07
2018-09-16T19:44:37.986Z,3.40
2018-09-16T19:47:07.928Z,5.30
2018-09-16T19:49:37.130Z,4.70
2018-09-16T19:52:05.896Z,4.47
2018-09-16T19:54:36.043Z,3.67
2018-09-16T19:57:04.543Z,4.70
2018-09-16T19:59:33.024Z,4.30
2018-09-16T20:02:02.113Z,4.50
2018-09-16T20:04:31.283Z,3.87
2018-09-16T20:07:01.139Z,6.67
2018-09-16T20:09:30.396Z,5.27
2018-09-16T20:11:59.484Z,3.63
2018-09-16T20:14:27.995Z,3.87
2018-09-16T20:16:57.101Z,5.67
2018-09-16T20:19:26.317Z,4.60
2018-09-16T20:21:56.868Z,4.73
2018-09-16T20:24:25.857Z,3.50
2018-09-16T20:26:56.619Z,4.03
2018-09-16T20:29:27.135Z,3.60
2018-09-16T20:31:58.494Z,2.70
2018-09-16T20:34:28.171Z,2.93
2018-09-16T20:37:02.333Z,5.30
2018-09-16T20:39:37.526Z,7.47
2018-09-16T20:42:06.577Z,3.17
2018-09-16T20:44:36.275Z,3.83
2018-09-16T20:47:06.348Z,4.40
2018-09-16T20:49:35.207Z,4.33
2018-09-16T20:52:04.508Z,3.50
2018-09-16T20:54:33.360Z,3.00
2018-09-16T20:57:02.303Z,6.67
2018-09-16T20:59:32.005Z,6.70
2018-09-16T21:02:00.713Z,5.50
2018-09-16T21:04:30.391Z,3.13
2018-09-16T21:06:59.078Z,4.23
2018-09-16T21:09:27.569Z,4.77
2018-09-16T21:11:57.941Z,3.30
2018-09-16T21:14:26.413Z,2.83
2018-09-16T21:16:57.454Z,3.97
2018-09-16T21:19:26.525Z,5.90
2018-09-16T21:21:56.135Z,4.97
2018-09-16T21:24:25.662Z,6.37
2018-09-16T21:26:55.315Z,3.30
2018-09-16T21:29:24.428Z,4.13
2018-09-16T21:31:53.599Z,3.63
2018-09-16T21:34:23.134Z,3.57
2018-09-16T21:36:53.036Z,4.13
2018-09-16T21:39:21.498Z,4.13
2018-09-16T21:41:50.827Z,5.40
2018-09-16T21:44:20.161Z,4.37
2018-09-16T21:46:49.201Z,3.60
2018-09-16T21:49:18.290Z,3.77
2018-09-16T21:51:48.204Z,7.40
2018-09-16T21:54:17.076Z,3.03
2018-09-16T21:56:45.660Z,2.60
2018-09-16T21:59:15.101Z,3.40
2018-09-16T22:01:44.504Z,5.37
2018-09-16T22:04:13.863Z,3.63
2018-09-16T22:06:42.846Z,3.80
2018-09-16T22:09:11.844Z,5.20
2018-09-16T22:11:41.566Z,5.23
2018-09-16T22:14:10.439Z,6.57
2018-09-16T22:16:39.121Z,4.33
2018-09-16T22:19:08.490Z,4.07
2018-09-16T22:21:37.206Z,3.17
2018-09-16T22:24:09.649Z,4.23
2018-09-16T22:26:40.987Z,3.43
2018-09-16T22:29:09.457Z,3.47
2018-09-16T22:31:39.397Z,5.30
2018-09-16T22:34:09.408Z,3.20
2018-09-16T22:36:38.891Z,4.67
2018-09-16T22:39:09.709Z,3.13
2018-09-16T22:41:38.432Z,2.70
2018-09-16T22:44:06.900Z,3.13
2018-09-16T22:46:35.953Z,3.40
2018-09-16T22:49:06.145Z,2.77
2018-09-16T22:51:35.243Z,2.47
2018-09-16T22:54:05.950Z,3.40
2018-09-16T22:56:34.557Z,2.30
2018-09-16T22:59:03.009Z,4.17
2018-09-16T23:01:31.754Z,2.70
2018-09-16T23:04:00.475Z,3.77
2018-09-16T23:06:29.216Z,3.33
2018-09-16T23:09:05.970Z,3.10
2018-09-16T23:11:35.000Z,2.83
2018-09-16T23:14:04.903Z,3.00
2018-09-16T23:16:33.725Z,3.40
2018-09-16T23:19:06.800Z,2.57
2018-09-16T23:21:35.507Z,3.33
2018-09-16T23:24:05.430Z,4.37
2018-09-16T23:26:34.619Z,3.27
2018-09-16T23:29:03.906Z,3.93
2018-09-16T23:31:33.580Z,2.67
2018-09-16T23:34:02.010Z,3.00
2018-09-16T23:36:30.583Z,3.23
2018-09-16T23:38:59.994Z,2.87
2018-09-16T23:41:28.478Z,3.10
2018-09-16T23:43:56.928Z,3.87
2018-09-16T23:46:26.310Z,2.53
2018-09-16T23:48:55.455Z,3.37
2018-09-16T23:51:25.993Z,2.77
2018-09-16T23:53:54.533Z,5.43
2018-09-16T23:56:23.232Z,3.33
2018-09-16T23:58:52.123Z,2.63
